createdAt,value
2022-11-15T00:02:07.275Z,360.80
2022-11-15T00:07:56.540Z,363.55
2022-11-15T00:13:51.237Z,248.07
2022-11-15T00:19:46.222Z,392.27
2022-11-15T00:25:43.229Z,524.30
2022-11-15T00:31:39.230Z,584.75
2022-11-15T00:37:34.253Z,532.40
2022-11-15T00:43:23.224Z,394.17
2022-11-15T00:49:18.233Z,317.67
2022-11-15T00:55:13.247Z,258.83
2022-11-15T01:01:10.257Z,227.00
2022-11-15T01:07:05.258Z,369.80
2022-11-15T01:13:00.235Z,411.17
2022-11-15T01:18:50.233Z,130.65
2022-11-15T01:24:45.221Z,269.95
2022-11-15T01:30:40.240Z,293.35
2022-11-15T01:36:31.227Z,166.48
2022-11-15T01:42:28.210Z,316.33
2022-11-15T01:48:26.218Z,516.70
2022-11-15T01:54:25.232Z,452.40
2022-11-15T02:00:22.231Z,220.93
2022-11-15T02:06:19.198Z,73.97
2022-11-15T02:12:09.219Z,264.30
2022-11-15T02:18:26.221Z,151.07
2022-11-15T02:25:12.205Z,457.63
2022-11-15T02:31:15.198Z,315.25
2022-11-15T02:37:19.197Z,378.15
2022-11-15T02:43:39.189Z,333.08
2022-11-15T02:49:35.192Z,277.20
2022-11-15T02:55:46.210Z,365.27
2022-11-15T03:09:06.238Z,240.88
2022-11-15T03:15:11.195Z,309.50
2022-11-15T03:21:00.198Z,151.07
2022-11-15T03:26:59.193Z,218.82
2022-11-15T03:32:57.179Z,264.17
2022-11-15T03:38:54.193Z,373.55
2022-11-15T03:44:51.221Z,236.57
2022-11-15T03:50:47.182Z,305.05
2022-11-15T03:56:43.176Z,248.57
2022-11-15T04:02:39.199Z,256.48
2022-11-15T04:08:34.182Z,264.67
2022-11-15T04:14:29.191Z,359.10
2022-11-15T04:20:45.168Z,270.00
2022-11-15T04:26:40.175Z,392.60
2022-11-15T04:32:28.202Z,116.15
2022-11-15T04:38:26.188Z,320.75
2022-11-15T04:44:21.179Z,240.25
2022-11-15T04:50:20.175Z,432.10
2022-11-15T04:56:16.178Z,273.70
2022-11-15T05:02:05.167Z,313.38
2022-11-15T05:08:00.160Z,471.95
2022-11-15T05:13:56.146Z,428.90
2022-11-15T05:19:52.161Z,429.55
2022-11-15T05:25:40.170Z,275.17
2022-11-15T05:31:37.158Z,469.35
2022-11-15T05:37:33.167Z,264.77
2022-11-15T05:43:21.223Z,372.38
2022-11-15T05:49:12.204Z,354.33
2022-11-15T05:55:08.172Z,504.05
2022-11-15T06:01:03.183Z,449.27
2022-11-15T06:06:59.213Z,340.73
2022-11-15T06:12:54.142Z,175.32
2022-11-15T06:18:49.177Z,338.05
2022-11-15T06:24:46.156Z,141.07
2022-11-15T06:30:42.160Z,289.30
2022-11-15T06:36:30.156Z,251.65
2022-11-15T06:42:20.153Z,494.80
2022-11-15T06:48:15.159Z,332.50
2022-11-15T06:54:10.163Z,141.77
2022-11-15T07:00:06.171Z,142.90
2022-11-15T07:06:06.823Z,211.82
2022-11-15T07:12:07.506Z,172.75
2022-11-15T07:18:05.142Z,365.73
2022-11-15T07:24:04.131Z,268.42
2022-11-15T07:30:00.159Z,311.58
2022-11-15T07:35:57.156Z,266.88
2022-11-15T07:41:52.129Z,153.18
2022-11-15T07:47:48.155Z,95.50
2022-11-15T07:53:37.130Z,98.93
2022-11-15T07:59:25.150Z,76.00
2022-11-15T08:05:21.155Z,84.00
2022-11-15T08:11:11.135Z,76.97
2022-11-15T08:17:06.132Z,64.63
2022-11-15T08:23:02.141Z,60.88
2022-11-15T08:28:58.159Z,66.65
2022-11-15T08:34:53.128Z,62.28
2022-11-15T08:40:48.137Z,59.83
2022-11-15T08:46:44.168Z,56.25
2022-11-15T08:52:39.132Z,63.97
2022-11-15T08:58:34.460Z,64.45
2022-11-15T09:04:30.158Z,60.17
2022-11-15T09:10:25.161Z,55.42
2022-11-15T09:16:13.156Z,51.35
2022-11-15T09:22:03.163Z,43.20
2022-11-15T09:27:58.119Z,46.63
2022-11-15T09:33:54.114Z,42.05
2022-11-15T09:39:43.126Z,39.53
2022-11-15T09:45:42.238Z,47.50
2022-11-15T09:51:54.141Z,36.33
2022-11-15T09:57:36.127Z,30.97
2022-11-15T10:03:24.149Z,39.05
2022-11-15T10:09:10.143Z,31.23
2022-11-15T10:14:53.192Z,29.30
2022-11-15T10:20:36.130Z,30.02
2022-11-15T10:26:15.111Z,27.50
2022-11-15T10:31:56.114Z,39.43
2022-11-15T10:37:44.122Z,33.10
2022-11-15T10:43:34.130Z,36.28
2022-11-15T10:49:28.111Z,33.05
2022-11-15T10:55:09.134Z,33.90
2022-11-15T11:00:50.143Z,33.97
2022-11-15T11:06:31.128Z,51.83
2022-11-15T11:12:08.088Z,36.80
2022-11-15T11:18:02.125Z,37.17
2022-11-15T11:24:01.117Z,31.65
2022-11-15T11:29:51.143Z,31.40
2022-11-15T11:35:35.135Z,30.77
2022-11-15T11:41:25.117Z,39.05
2022-11-15T11:47:12.104Z,42.60
2022-11-15T11:52:54.128Z,33.15
2022-11-15T11:58:38.095Z,35.33
2022-11-15T12:04:20.164Z,38.28
2022-11-15T12:10:04.110Z,44.30
2022-11-15T12:15:47.133Z,52.15
2022-11-15T12:21:35.095Z,47.40
2022-11-15T12:27:15.118Z,40.88
2022-11-15T12:32:55.105Z,38.65
2022-11-15T12:39:11.115Z,34.97
2022-11-15T12:45:13.120Z,30.17
2022-11-15T12:51:11.139Z,31.70
2022-11-15T12:56:48.088Z,36.05
2022-11-15T13:02:34.134Z,34.75
2022-11-15T13:08:14.102Z,34.97
2022-11-15T13:14:00.117Z,36.40
2022-11-15T13:19:39.110Z,38.30
2022-11-15T13:25:19.120Z,40.40
2022-11-15T13:30:57.102Z,44.22
2022-11-15T13:36:37.116Z,43.20
2022-11-15T13:42:16.111Z,42.10
2022-11-15T13:47:53.101Z,55.43
2022-11-15T13:53:30.096Z,52.38
2022-11-15T13:59:08.093Z,49.63
2022-11-15T14:04:47.089Z,48.28
2022-11-15T14:10:44.115Z,52.33
2022-11-15T14:16:36.115Z,52.72
2022-11-15T14:22:33.114Z,57.60
2022-11-15T14:28:32.311Z,51.65
2022-11-15T14:34:10.081Z,64.23
2022-11-15T14:39:47.063Z,69.93
2022-11-15T14:45:28.103Z,82.18
2022-11-15T14:51:06.139Z,62.50
2022-11-15T14:56:43.112Z,62.53
2022-11-15T15:02:30.085Z,67.40
2022-11-15T15:08:08.262Z,92.32
2022-11-15T15:13:45.070Z,118.60
2022-11-15T15:19:47.832Z,165.13
2022-11-15T15:25:44.469Z,84.43
2022-11-15T15:31:39.224Z,85.10
2022-11-15T15:37:35.091Z,78.20
2022-11-15T15:43:13.088Z,80.75
2022-11-15T15:48:50.096Z,88.63
2022-11-15T15:54:27.079Z,76.90
2022-11-15T16:00:05.087Z,79.35
2022-11-15T16:05:45.094Z,80.93
2022-11-15T16:11:23.093Z,91.10
2022-11-15T16:17:01.101Z,86.90
2022-11-15T16:22:38.082Z,104.05
2022-11-15T16:28:15.090Z,98.97
2022-11-15T16:33:56.290Z,100.15
2022-11-15T16:40:01.015Z,94.90
2022-11-15T16:45:52.094Z,89.03
2022-11-15T16:51:40.263Z,108.65
2022-11-15T16:57:20.074Z,103.05
2022-11-15T17:02:57.069Z,96.45
2022-11-15T17:08:35.230Z,99.60
2022-11-15T17:14:12.117Z,93.38
2022-11-15T17:19:49.084Z,92.95
2022-11-15T17:25:28.092Z,90.55
2022-11-15T17:31:05.087Z,93.17
2022-11-15T17:36:42.260Z,87.18
2022-11-15T17:42:20.066Z,94.65
2022-11-15T17:48:01.013Z,85.93
2022-11-15T17:53:42.072Z,88.38
2022-11-15T17:59:21.734Z,93.65
2022-11-15T18:05:28.369Z,130.35
2022-11-15T18:16:51.095Z,116.72
2022-11-15T18:22:29.052Z,109.88
2022-11-15T18:28:06.112Z,124.53
2022-11-15T18:33:48.052Z,147.57
2022-11-15T18:39:25.064Z,191.02
2022-11-15T18:45:02.070Z,242.40
2022-11-15T18:50:40.079Z,140.63
2022-11-15T18:56:19.101Z,171.35
2022-11-15T19:01:59.056Z,154.33
2022-11-15T19:07:39.077Z,151.95
2022-11-15T19:13:16.051Z,150.65
2022-11-15T19:18:54.051Z,155.07
2022-11-15T19:24:32.060Z,123.85
2022-11-15T19:30:09.169Z,119.60
2022-11-15T19:35:55.104Z,126.32
2022-11-15T19:41:43.059Z,147.50
2022-11-15T19:47:33.140Z,113.10
2022-11-15T19:53:14.078Z,128.40
2022-11-15T19:58:59.830Z,174.13
2022-11-15T20:04:37.065Z,162.70
2022-11-15T20:10:18.150Z,171.77
2022-11-15T20:15:59.065Z,151.70
2022-11-15T20:21:36.065Z,188.30
2022-11-15T20:27:13.093Z,204.95
2022-11-15T20:32:51.037Z,110.15
2022-11-15T20:38:28.042Z,171.65
2022-11-15T20:44:05.053Z,177.30
2022-11-15T20:49:43.044Z,113.93
2022-11-15T20:55:21.031Z,173.60
2022-11-15T21:00:58.136Z,132.75
2022-11-15T21:06:38.045Z,143.68
2022-11-15T21:12:21.042Z,146.05
2022-11-15T21:18:11.540Z,128.70
2022-11-15T21:23:55.786Z,138.93
2022-11-15T21:29:44.319Z,132.15
2022-11-15T21:35:22.042Z,127.57
2022-11-15T21:41:00.332Z,116.72
2022-11-15T21:46:37.048Z,120.35
2022-11-15T21:52:14.033Z,126.78
2022-11-15T21:57:52.074Z,114.65
2022-11-15T22:03:37.044Z,114.00
2022-11-15T22:09:14.083Z,104.30
2022-11-15T22:14:52.090Z,137.60
2022-11-15T22:20:44.191Z,148.75
2022-11-15T22:26:23.786Z,141.15
2022-11-15T22:32:02.416Z,141.13
2022-11-15T22:37:42.096Z,142.07
2022-11-15T22:43:20.077Z,154.85
2022-11-15T22:49:03.026Z,151.95
2022-11-15T22:54:40.039Z,161.68
2022-11-15T23:00:20.256Z,132.75
2022-11-15T23:05:58.053Z,131.75
2022-11-15T23:11:53.055Z,132.68
2022-11-15T23:17:30.063Z,122.15
2022-11-15T23:23:08.051Z,117.40
2022-11-15T23:28:47.037Z,110.88
2022-11-15T23:34:24.050Z,113.63
2022-11-15T23:40:02.051Z,108.93
2022-11-15T23:45:39.057Z,119.55
2022-11-15T23:51:16.055Z,115.03
2022-11-15T23:56:55.042Z,106.15
